Time;durP1;ratioP1;P1;durP2;ratioP2;P2;SDS_P1;SDS_P2;PMS_P1;PMS_P2;Temp;Humidity;BMP_temperature;BMP_pressure;BME280_temperature;BME280_humidity;BME280_pressure;Samples;Min_cycle;Max_cycle;Signal;HPM_P1;HPM_P2
2023/04/10 00:05:47;;;;;;;77.50;42.90;;;;;;;4.42;93.41;99824.90;274020;1266;22319;-87
2023/04/10 00:11:48;;;;;;;73.10;40.40;;;;;;;4.38;93.73;99822.79;270571;1266;22573;-86
2023/04/10 00:17:53;;;;;;;68.20;37.50;;;;;;;4.34;93.92;99818.12;274041;1267;22327;-89
2023/04/10 00:23:55;;;;;;;75.90;39.80;;;;;;;4.22;93.72;99809.40;271955;1266;22519;-86
2023/04/10 00:29:56;;;;;;;83.40;44.90;;;;;;;4.11;94.20;99806.52;270579;1266;22523;-86
2023/04/10 00:35:58;;;;;;;78.50;44.00;;;;;;;4.06;95.02;99800.46;270881;1263;22353;-86
2023/04/10 00:42:00;;;;;;;72.70;41.10;;;;;;;4.01;94.94;99798.61;272945;1266;22335;-89
2023/04/10 00:48:20;;;;;;;73.70;42.40;;;;;;;3.92;94.78;99799.39;272492;1266;22421;-89
2023/04/10 00:54:24;;;;;;;77.90;42.30;;;;;;;3.87;94.63;99799.81;273131;1266;22227;-87
2023/04/10 01:00:29;;;;;;;75.80;42.40;;;;;;;3.83;94.96;99796.23;273581;1266;23234;-87
2023/04/10 01:06:53;;;;;;;91.80;49.10;;;;;;;3.82;96.08;99798.80;273462;1266;22710;-87
2023/04/10 01:13:31;;;;;;;100.80;52.50;;;;;;;3.85;96.81;99808.15;273462;1266;25385;-87
2023/04/10 01:19:59;;;;;;;93.20;47.90;;;;;;;3.97;97.52;99807.82;272013;1266;22548;-87
2023/04/10 01:26:26;;;;;;;;;;;;;;;4.13;96.92;99801.04;271689;1264;22624;-86
2023/04/10 01:32:33;;;;;;;89.70;48.40;;;;;;;4.25;98.91;99793.13;271599;1266;22434;-88
2023/04/10 01:38:59;;;;;;;87.40;48.40;;;;;;;4.39;99.86;99789.52;273381;1267;22697;-87
2023/04/10 01:45:01;;;;;;;98.10;51.50;;;;;;;4.54;98.71;99792.33;272200;1267;22368;-86
2023/04/10 01:51:04;;;;;;;93.30;51.80;;;;;;;4.67;98.69;99792.97;273834;1266;22327;-87
2023/04/10 01:57:09;;;;;;;98.90;54.50;;;;;;;4.76;99.58;99793.36;273749;1266;22652;-87
2023/04/10 02:03:17;;;;;;;98.20;48.90;;;;;;;4.85;99.94;99789.16;272356;1266;22557;-87
2023/04/10 02:10:12;;;;;;;93.10;49.00;;;;;;;4.96;99.82;99793.52;271374;1266;22290;-89
2023/04/10 02:16:23;;;;;;;101.40;52.90;;;;;;;5.02;99.97;99799.55;273525;1266;22168;-87
2023/04/10 02:22:44;;;;;;;106.90;55.80;;;;;;;5.09;100.00;99801.02;272867;1266;23463;-87
2023/04/10 02:28:50;;;;;;;104.20;52.50;;;;;;;5.19;100.00;99802.92;271776;1259;22555;-87
2023/04/10 02:34:55;;;;;;;112.10;56.70;;;;;;;5.25;100.00;99791.81;274002;1266;22223;-87
2023/04/10 02:41:18;;;;;;;113.50;56.30;;;;;;;5.32;100.00;99787.33;271661;1266;25353;-88
2023/04/10 02:47:20;;;;;;;115.80;55.40;;;;;;;5.39;100.00;99794.61;271295;1256;22552;-87
2023/04/10 02:53:26;;;;;;;103.00;54.70;;;;;;;5.45;100.00;99795.88;271297;1267;22292;-87
2023/04/10 02:59:34;;;;;;;121.30;58.70;;;;;;;5.51;100.00;99792.97;271897;1266;22622;-87
2023/04/10 03:05:56;;;;;;;103.70;53.00;;;;;;;5.59;100.00;99788.25;271068;1266;22197;-88
2023/04/10 03:12:01;;;;;;;124.80;58.60;;;;;;;5.65;100.00;99791.95;274090;1266;23169;-86
2023/04/10 03:18:52;;;;;;;117.60;55.20;;;;;;;5.72;100.00;99797.04;272790;1266;23766;-87
2023/04/10 03:24:54;;;;;;;124.30;55.20;;;;;;;5.77;100.00;99801.58;271410;1257;22237;-87
2023/04/10 03:31:04;;;;;;;137.00;57.30;;;;;;;5.83;100.00;99796.02;273877;1266;22329;-88
2023/04/10 03:37:08;;;;;;;132.90;58.60;;;;;;;5.90;100.00;99796.99;272399;1266;24443;-87
2023/04/10 03:43:47;;;;;;;146.80;58.20;;;;;;;5.95;100.00;99792.13;270250;1266;22652;-88
2023/04/10 03:49:49;;;;;;;137.10;55.90;;;;;;;6.00;100.00;99788.90;270255;1266;22733;-86
2023/04/10 03:56:07;;;;;;;139.80;56.20;;;;;;;6.04;100.00;99787.73;270843;1256;22227;-88
2023/04/10 04:02:12;;;;;;;144.80;54.70;;;;;;;6.06;100.00;99794.52;272306;1266;23526;-87
2023/04/10 04:08:18;;;;;;;;;;;;;;;6.08;100.00;99798.56;273669;1266;24218;-89
2023/04/10 04:14:38;;;;;;;141.00;53.80;;;;;;;6.10;100.00;99800.50;270056;1266;22552;-88
2023/04/10 04:21:53;;;;;;;136.10;50.40;;;;;;;6.13;100.00;99796.34;270230;1266;23125;-87
2023/04/10 04:28:43;;;;;;;160.30;57.90;;;;;;;6.15;100.00;99799.86;270677;1266;23877;-87
2023/04/10 04:35:17;;;;;;;157.30;58.10;;;;;;;6.16;100.00;99810.02;272494;1266;22329;-88
2023/04/10 04:42:06;;;;;;;161.40;58.70;;;;;;;6.18;100.00;99811.41;272347;1265;22622;-88
2023/04/10 04:48:19;;;;;;;166.10;57.80;;;;;;;6.20;100.00;99809.55;272195;1267;22523;-88
2023/04/10 04:54:40;;;;;;;152.60;53.20;;;;;;;6.22;100.00;99809.76;272414;1266;22216;-86
2023/04/10 05:01:11;;;;;;;156.70;57.60;;;;;;;6.23;100.00;99803.99;273439;1266;23241;-87
2023/04/10 05:07:48;;;;;;;158.80;55.00;;;;;;;6.26;100.00;99809.40;271650;1266;22332;-88
2023/04/10 05:14:33;;;;;;;159.60;54.20;;;;;;;6.28;100.00;99815.14;272244;1266;22361;-87
2023/04/10 05:21:05;;;;;;;151.60;52.40;;;;;;;6.29;100.00;99821.26;271934;1266;22336;-87
2023/04/10 05:27:46;;;;;;;156.40;51.80;;;;;;;6.28;100.00;99834.27;273234;1258;22434;-86
2023/04/10 05:34:06;;;;;;;149.10;47.40;;;;;;;6.28;100.00;99837.37;273488;1266;22172;-87
2023/04/10 05:40:54;;;;;;;127.20;45.60;;;;;;;6.31;100.00;99842.69;271360;1266;22628;-86
2023/04/10 05:47:32;;;;;;;144.90;47.40;;;;;;;6.33;100.00;99847.42;273292;1266;22334;-88
2023/04/10 05:54:21;;;;;;;136.20;44.60;;;;;;;6.36;100.00;99843.61;273532;1266;22225;-88
2023/04/10 06:00:40;;;;;;;134.60;46.90;;;;;;;6.43;100.00;99842.72;273096;1267;22546;-89
2023/04/10 06:07:36;;;;;;;114.70;42.70;;;;;;;6.49;100.00;99842.56;270600;1266;22647;-86
2023/04/10 06:13:58;;;;;;;117.90;43.60;;;;;;;6.50;100.00;99847.52;272200;1267;22462;-86
2023/04/10 06:20:26;;;;;;;121.40;44.40;;;;;;;6.53;100.00;99843.44;272001;1266;23904;-87
2023/04/10 06:27:12;;;;;;;114.20;43.70;;;;;;;6.56;100.00;99839.36;272694;1266;23162;-87
2023/04/10 06:33:21;;;;;;;106.10;40.90;;;;;;;6.61;100.00;99838.38;273829;1266;22575;-87
2023/04/10 06:39:24;;;;;;;99.20;38.10;;;;;;;6.64;100.00;99840.63;274023;1266;22337;-87
2023/04/10 06:45:37;;;;;;;99.60;38.30;;;;;;;6.66;100.00;99838.28;272908;1256;25278;-88
2023/04/10 06:51:39;;;;;;;111.20;42.00;;;;;;;6.73;100.00;99840.35;273649;1266;23466;-87
2023/04/10 06:58:04;;;;;;;104.50;41.00;;;;;;;6.81;100.00;99845.88;271624;1266;22177;-88
2023/04/10 07:04:05;;;;;;;97.90;41.30;;;;;;;6.86;100.00;99850.65;273590;1267;22428;-87
2023/04/10 07:10:07;;;;;;;97.90;41.20;;;;;;;6.88;100.00;99850.80;272600;1266;22408;-88
2023/04/10 07:16:09;;;;;;;107.30;42.50;;;;;;;6.96;100.00;99856.03;274071;1266;23335;-87
2023/04/10 07:22:33;;;;;;;98.90;39.30;;;;;;;7.05;100.00;99856.48;272923;1266;23303;-88
2023/04/10 07:28:56;;;;;;;93.70;39.60;;;;;;;7.12;100.00;99854.80;271206;1266;22312;-88
2023/04/10 07:42:09;;;;;;;95.90;42.00;;;;;;;7.15;100.00;99858.10;270473;1271;25377;-87
2023/04/10 07:48:31;;;;;;;107.00;44.10;;;;;;;7.18;100.00;99858.59;272370;1266;22368;-89
2023/04/10 07:54:35;;;;;;;106.00;43.60;;;;;;;7.19;100.00;99860.59;274003;1267;253086;-87
2023/04/10 08:00:43;;;;;;;101.50;44.10;;;;;;;7.15;100.00;99853.52;272511;1266;22555;-89
2023/04/10 08:06:45;;;;;;;99.00;42.80;;;;;;;7.12;100.00;99849.13;271840;1266;22144;-88
2023/04/10 08:12:53;;;;;;;101.90;42.60;;;;;;;7.11;100.00;99853.52;274114;1266;22332;-88
2023/04/10 08:19:16;;;;;;;105.30;42.70;;;;;;;7.15;100.00;99853.89;271294;1267;22550;-88
2023/04/10 08:26:36;;;;;;;102.50;42.10;;;;;;;7.19;100.00;99855.73;270504;1266;25382;-88
2023/04/10 08:33:39;;;;;;;102.20;43.20;;;;;;;7.26;100.00;99860.55;269777;1269;22628;-87
2023/04/10 08:39:45;;;;;;;105.30;41.70;;;;;;;7.35;100.00;99867.13;269328;1272;24372;-87
2023/04/10 08:46:31;;;;;;;111.40;44.00;;;;;;;7.45;100.00;99865.38;270160;1272;22587;-87
2023/04/10 08:52:34;;;;;;;114.90;45.90;;;;;;;7.49;100.00;99854.32;269906;1269;25579;-88
2023/04/10 08:58:41;;;;;;;123.80;47.60;;;;;;;7.54;100.00;99853.58;270682;1270;22588;-89
2023/04/10 09:05:01;;;;;;;128.10;48.50;;;;;;;7.60;100.00;99856.45;273009;1266;22488;-87
2023/04/10 09:11:44;;;;;;;130.60;49.90;;;;;;;7.65;100.00;99855.30;274008;1267;22223;-88
2023/04/10 09:18:02;;;;;;;144.00;50.40;;;;;;;7.75;100.00;99851.77;274100;1266;22543;-87
2023/04/10 09:24:05;;;;;;;132.10;50.20;;;;;;;7.86;100.00;99845.08;274136;1266;22693;-86
2023/04/10 09:30:13;;;;;;;129.80;49.30;;;;;;;7.97;100.00;99838.84;273317;1256;22682;-87
2023/04/10 09:36:19;;;;;;;146.50;53.50;;;;;;;8.07;100.00;99835.76;271951;1266;22525;-86
2023/04/10 09:42:31;;;;;;;;;;;;;;;8.14;100.00;99838.46;271697;1266;22517;-88
2023/04/10 09:48:34;;;;;;;148.20;53.30;;;;;;;8.20;100.00;99838.99;271281;1270;22608;-87
2023/04/10 09:55:19;;;;;;;143.80;53.90;;;;;;;8.30;100.00;99835.60;272070;1266;22453;-88
2023/04/10 10:02:11;;;;;;;155.10;56.60;;;;;;;8.37;100.00;99828.77;272579;1266;22355;-90
2023/04/10 10:08:47;;;;;;;152.60;55.00;;;;;;;8.38;100.00;99824.05;274159;1266;22227;-88
2023/04/10 10:15:42;;;;;;;138.20;55.60;;;;;;;8.39;100.00;99819.33;270706;1270;23468;-89
2023/04/10 10:22:46;;;;;;;131.10;51.40;;;;;;;8.53;100.00;99815.71;273714;1267;22291;-89
2023/04/10 10:30:24;;;;;;;140.20;55.10;;;;;;;8.67;100.00;99816.70;272639;1274;22359;-90
2023/04/10 10:38:00;;;;;;;134.90;50.70;;;;;;;8.67;100.00;99813.59;270723;1268;22320;-89
2023/04/10 10:45:21;;;;;;;135.20;52.70;;;;;;;8.69;100.00;99804.17;273481;1270;23492;-88
2023/04/10 10:52:29;;;;;;;126.20;51.40;;;;;;;8.78;100.00;99798.14;273981;1266;22343;-88
2023/04/10 11:08:02;;;;;;;136.40;54.80;;;;;;;8.90;100.00;99788.58;270615;1266;24253;-89
2023/04/10 11:15:48;;;;;;;143.20;54.00;;;;;;;8.91;100.00;99779.32;272645;1266;22509;-89
2023/04/10 11:22:23;;;;;;;124.60;50.50;;;;;;;9.03;100.00;99770.40;274208;1266;22273;-90
2023/04/10 11:28:40;;;;;;;114.60;48.90;;;;;;;9.30;100.00;99758.00;274132;1267;23562;-89
2023/04/10 11:35:01;;;;;;;121.60;51.00;;;;;;;9.58;100.00;99756.73;271662;1266;23300;-86
2023/04/10 11:41:13;;;;;;;127.30;50.10;;;;;;;9.68;100.00;99755.23;270157;1266;23288;-88
2023/04/10 11:47:16;;;;;;;123.90;49.80;;;;;;;9.68;100.00;99748.18;270978;1270;26268;-89
2023/04/10 11:53:29;;;;;;;107.00;47.30;;;;;;;9.85;100.00;99743.06;274117;1267;22204;-89
2023/04/10 11:59:33;;;;;;;113.90;46.60;;;;;;;10.09;100.00;99736.52;273878;1267;22359;-89
2023/04/10 12:06:52;;;;;;;;;;;;;;;;;;;;;
2023/04/10 12:14:09;;;;;;;;;;;;;;;;;;;;;
2023/04/10 12:20:27;;;;;;;94.90;43.70;;;;;;;11.18;100.00;99710.48;274041;1266;22416;-90
2023/04/10 12:27:19;;;;;;;91.90;45.70;;;;;;;11.45;100.00;99700.52;274016;1267;22219;-89
2023/04/10 12:34:09;;;;;;;;;;;;;;;11.55;100.00;99687.01;271745;1267;22557;-89
2023/04/10 12:41:51;;;;;;;;;;;;;;;;;;;;;
2023/04/10 12:48:37;;;;;;;85.20;40.60;;;;;;;12.03;100.00;99651.41;272093;1273;22356;-89
2023/04/10 12:55:32;;;;;;;83.20;41.00;;;;;;;12.46;100.00;99635.02;270927;1266;22554;-91
2023/04/10 13:01:46;;;;;;;85.90;44.40;;;;;;;12.51;100.00;99630.23;271913;1266;22523;-90
2023/04/10 13:08:31;;;;;;;84.40;43.90;;;;;;;12.75;100.00;99617.27;274190;1266;22428;-93
2023/04/10 13:14:37;;;;;;;72.20;39.90;;;;;;;13.15;100.00;99607.68;273944;1266;22200;-92
2023/04/10 13:21:06;;;;;;;86.70;44.40;;;;;;;13.72;100.00;99591.51;273335;1267;22630;-89
2023/04/10 13:27:31;;;;;;;82.20;41.40;;;;;;;13.85;100.00;99591.28;272812;1267;22322;-91
2023/04/10 13:34:10;;;;;;;80.20;41.10;;;;;;;13.80;100.00;99587.00;272397;1267;22382;-89
2023/04/10 13:40:37;;;;;;;81.30;42.50;;;;;;;13.66;100.00;99572.83;274037;1267;22355;-92
2023/04/10 13:46:54;;;;;;;80.40;44.00;;;;;;;13.80;100.00;99565.16;273115;1266;22367;-90
2023/04/10 13:53:24;;;;;;;80.80;43.70;;;;;;;14.02;100.00;99553.34;272279;1267;23827;-92
2023/04/10 13:59:58;;;;;;;88.80;42.40;;;;;;;14.01;99.76;99543.98;272225;1270;23553;-92
2023/04/10 14:06:43;;;;;;;76.80;39.00;;;;;;;13.96;99.60;99533.17;273208;1270;22377;-92
2023/04/10 14:13:42;;;;;;;84.80;44.40;;;;;;;13.94;98.62;99522.85;271090;1270;22662;-88
2023/04/10 14:21:26;;;;;;;77.80;40.30;;;;;;;13.99;97.81;99521.31;271569;1269;23848;-90
2023/04/10 14:28:47;;;;;;;81.30;42.20;;;;;;;14.11;96.63;99521.86;271065;1267;22234;-91
2023/04/10 14:35:29;;;;;;;75.90;41.70;;;;;;;14.21;95.77;99518.60;272538;1266;22329;-89
2023/04/10 14:42:14;;;;;;;76.30;39.70;;;;;;;14.10;95.57;99513.98;272359;1261;23515;-90
2023/04/10 14:49:26;;;;;;;74.50;41.00;;;;;;;14.03;95.29;99496.41;272778;1267;22431;-89
2023/04/10 14:56:30;;;;;;;72.50;39.50;;;;;;;14.23;95.60;99479.68;271065;1267;22550;-89
2023/04/10 15:04:11;;;;;;;70.90;38.10;;;;;;;14.31;94.80;99471.31;271597;1267;22813;-89
2023/04/10 15:10:49;;;;;;;71.70;37.40;;;;;;;14.30;93.81;99472.64;272269;1266;23244;-88
2023/04/10 15:17:14;;;;;;;72.60;39.60;;;;;;;14.31;92.98;99492.94;270793;1267;22561;-89
2023/04/10 15:32:31;;;;;;;81.80;43.10;;;;;;;12.91;93.78;99526.93;267340;1282;24286;-87
2023/04/10 15:39:29;;;;;;;93.40;45.70;;;;;;;12.33;96.04;99523.55;268179;1272;22548;-88
2023/04/10 15:46:48;;;;;;;;;;;;;;;;;;;;;
2023/04/10 16:02:15;;;;;;;88.30;41.70;;;;;;;11.43;99.17;99457.28;269885;1274;22536;-89
2023/04/10 16:10:05;;;;;;;89.00;43.00;;;;;;;11.17;99.37;99451.56;269304;1272;23869;-89
2023/04/10 16:18:06;;;;;;;93.70;42.30;;;;;;;11.02;100.00;99450.31;270972;1266;22214;-88
2023/04/10 16:26:18;;;;;;;85.00;41.60;;;;;;;10.92;100.00;99453.43;270839;1271;23435;-88
2023/04/10 16:34:15;;;;;;;100.80;46.70;;;;;;;10.61;100.00;99455.00;270598;1272;22721;-88
2023/04/10 16:42:24;;;;;;;98.60;47.40;;;;;;;10.36;100.00;99456.63;268909;1275;22539;-89
2023/04/10 16:50:51;;;;;;;;;;;;;;;;;;;;;
2023/04/10 16:58:12;;;;;;;91.10;45.80;;;;;;;10.15;100.00;99444.49;269565;1273;24129;-89
2023/04/10 17:06:06;;;;;;;92.10;43.70;;;;;;;10.03;100.00;99451.96;272195;1278;22390;-89
2023/04/10 17:14:06;;;;;;;84.90;42.20;;;;;;;9.92;100.00;99459.55;272260;1278;22226;-88
2023/04/10 17:21:14;;;;;;;69.80;37.30;;;;;;;9.82;100.00;99458.09;272435;1273;22361;-89
2023/04/10 17:27:45;;;;;;;80.80;40.40;;;;;;;9.75;100.00;99455.05;272559;1274;22279;-89
2023/04/10 17:33:50;;;;;;;67.80;37.10;;;;;;;9.64;100.00;99456.76;272467;1273;22829;-88
2023/04/10 17:40:02;;;;;;;86.80;43.40;;;;;;;9.52;100.00;99460.02;272920;1267;22361;-90
2023/04/10 17:46:07;;;;;;;87.70;43.70;;;;;;;9.42;100.00;99457.19;273522;1266;22312;-89
2023/04/10 17:52:09;;;;;;;86.00;43.70;;;;;;;9.40;100.00;99462.55;273524;1267;22318;-89
2023/04/10 17:58:13;;;;;;;83.40;42.50;;;;;;;9.39;100.00;99460.18;265964;1267;10002010;-89
2023/04/10 18:04:15;;;;;;;116.80;58.60;;;;;;;9.39;100.00;99478.04;273270;1267;22544;-90
2023/04/10 18:10:17;;;;;;;28.30;14.40;;;;;;;9.34;100.00;99530.41;272286;1267;22418;-94
2023/04/10 18:16:25;;;;;;;19.20;6.40;;;;;;;8.97;100.00;99547.77;272797;1267;23786;-91
2023/04/10 18:23:20;;;;;;;;;;;;;;;;;;;;;
2023/04/10 18:30:12;;;;;;;13.90;7.00;;;;;;;7.62;100.00;99540.67;273827;1266;22359;-88
2023/04/10 18:36:36;;;;;;;11.80;5.50;;;;;;;7.50;100.00;99532.27;273683;1267;22254;-88
2023/04/10 18:42:42;;;;;;;16.10;10.80;;;;;;;7.33;100.00;99531.79;273789;1268;22229;-88
2023/04/10 18:49:09;;;;;;;9.50;5.60;;;;;;;7.24;100.00;99539.14;273735;1267;22525;-88
2023/04/10 18:55:11;;;;;;;;;;;;;;;7.17;100.00;99538.81;273869;1269;24066;-89
2023/04/10 19:01:13;;;;;;;22.60;12.60;;;;;;;7.03;100.00;99536.00;273811;1267;23849;-89
2023/04/10 19:07:18;;;;;;;16.00;10.90;;;;;;;7.04;100.00;99524.02;273904;1264;22227;-88
2023/04/10 19:13:24;;;;;;;15.10;9.90;;;;;;;7.07;100.00;99508.30;274013;1269;23085;-88
2023/04/10 19:19:52;;;;;;;18.30;9.70;;;;;;;7.01;100.00;99492.09;273729;1267;22195;-89
2023/04/10 19:26:42;;;;;;;15.60;9.90;;;;;;;6.98;100.00;99472.62;273946;1268;22353;-89
2023/04/10 19:32:52;;;;;;;21.00;11.60;;;;;;;6.93;100.00;99456.13;273822;1267;22414;-87
2023/04/10 19:38:55;;;;;;;18.50;10.80;;;;;;;6.82;100.00;99451.30;273772;1267;22394;-88
2023/04/10 19:44:58;;;;;;;19.80;11.90;;;;;;;6.72;100.00;99449.06;273745;1267;22325;-89
2023/04/10 19:51:06;;;;;;;18.80;10.90;;;;;;;6.61;100.00;99441.45;273833;1268;22658;-89
2023/04/10 19:57:22;;;;;;;14.70;9.30;;;;;;;6.46;100.00;99433.95;273614;1267;192078;-88
2023/04/10 20:03:35;;;;;;;15.10;10.10;;;;;;;6.29;100.00;99428.88;273955;1266;22630;-89
2023/04/10 20:10:05;;;;;;;16.80;11.30;;;;;;;6.21;100.00;99426.34;274007;1267;22953;-89
2023/04/10 20:16:41;;;;;;;16.90;10.40;;;;;;;6.11;100.00;99424.98;273934;1269;23731;-89
2023/04/10 20:23:18;;;;;;;13.10;9.00;;;;;;;5.99;100.00;99429.05;272760;1267;22191;-88
2023/04/10 20:30:33;;;;;;;20.70;10.10;;;;;;;5.81;100.00;99415.94;273869;1267;22208;-89
2023/04/10 20:37:26;;;;;;;14.70;9.50;;;;;;;5.65;100.00;99411.14;274007;1268;22196;-89
2023/04/10 20:44:46;;;;;;;16.60;11.50;;;;;;;5.48;100.00;99394.50;273940;1266;23453;-88
2023/04/10 20:52:03;;;;;;;73.50;9.40;;;;;;;5.21;100.00;99389.91;272689;1275;22587;-89
2023/04/10 20:58:44;;;;;;;13.10;9.20;;;;;;;5.02;100.00;99384.00;272608;1274;23494;-89
2023/04/10 21:05:57;;;;;;;;;;;;;;;;;;;;;
2023/04/10 21:12:44;;;;;;;18.10;11.70;;;;;;;4.74;100.00;99376.31;272611;1271;22500;-89
2023/04/10 21:19:04;;;;;;;14.30;10.80;;;;;;;4.67;100.00;99365.10;273406;1266;22332;-89
2023/04/10 21:26:05;;;;;;;23.40;16.40;;;;;;;4.64;100.00;99358.25;273460;1270;22343;-89
2023/04/10 21:32:40;;;;;;;31.30;15.20;;;;;;;4.59;100.00;99355.11;273311;1270;23212;-90
2023/04/10 21:38:56;;;;;;;24.90;17.80;;;;;;;4.39;100.00;99353.87;273458;1270;22281;-90
2023/04/10 21:45:36;;;;;;;20.70;13.00;;;;;;;4.26;100.00;99358.77;273409;1269;22291;-89
2023/04/10 21:59:37;;;;;;;32.60;22.40;;;;;;;4.08;100.00;99345.60;270555;1270;22251;-87
2023/04/10 22:06:07;;;;;;;38.00;18.50;;;;;;;3.97;100.00;99338.97;269367;1269;22546;-87
2023/04/10 22:12:45;;;;;;;25.60;17.90;;;;;;;3.72;100.00;99338.70;269909;1269;22661;-88
2023/04/10 22:18:51;;;;;;;31.80;20.40;;;;;;;3.57;100.00;99337.20;270135;1269;24366;-88
2023/04/10 22:25:15;;;;;;;38.00;22.10;;;;;;;3.53;100.00;99329.27;270324;1269;25411;-87
2023/04/10 22:32:06;;;;;;;31.80;20.10;;;;;;;3.49;100.00;99321.93;273083;1266;23238;-88
2023/04/10 22:38:19;;;;;;;38.10;24.70;;;;;;;3.44;100.00;99321.55;272788;1266;23120;-87
2023/04/10 22:44:26;;;;;;;42.60;22.60;;;;;;;3.25;100.00;99324.20;271986;1263;22558;-87
2023/04/10 22:50:29;;;;;;;36.30;22.50;;;;;;;3.13;100.00;99330.62;270480;1264;22558;-89
2023/04/10 22:56:31;;;;;;;38.00;21.70;;;;;;;3.09;100.00;99322.65;270639;1267;22505;-89
2023/04/10 23:02:35;;;;;;;35.80;18.90;;;;;;;3.03;100.00;99319.36;272989;1266;22545;-88
2023/04/10 23:08:37;;;;;;;36.20;21.00;;;;;;;2.89;100.00;99310.35;269707;1257;22523;-89
2023/04/10 23:15:00;;;;;;;31.40;19.40;;;;;;;2.79;100.00;99305.89;269732;1266;22546;-88
2023/04/10 23:21:23;;;;;;;37.10;21.50;;;;;;;2.66;100.00;99305.36;269976;1266;22531;-88
2023/04/10 23:27:26;;;;;;;34.00;19.50;;;;;;;2.50;100.00;99292.33;269597;1267;22587;-88
2023/04/10 23:33:32;;;;;;;39.20;20.60;;;;;;;2.45;100.00;99278.80;270127;1258;25404;-88
2023/04/10 23:40:05;;;;;;;32.40;19.10;;;;;;;2.39;100.00;99264.61;270582;1266;27866;-87
2023/04/10 23:46:27;;;;;;;31.90;20.40;;;;;;;2.34;100.00;99248.54;271232;1257;22423;-87
2023/04/10 23:52:31;;;;;;;31.70;19.10;;;;;;;2.31;100.00;99242.31;273969;1266;23123;-88
2023/04/10 23:59:36;;;;;;;36.00;20.10;;;;;;;2.32;100.00;99227.38;271107;1266;24709;-88
